John_paul K — PBHY — position and weather

sailwx.info

Track history (hours):
 
Tides and Currents Weather Stations Pressure Air Temp Water Temp Dewpoint Dewpoint Depression Visibility Wind Speed Wind Dir Waves Ship Positions

John_paul K

Last reported at 2016-Dec-02 19:27 UTC. Time now 2016-Dec-03 23:51 UTC.
Position N 38°22' W 009°59'.

Length 90 m; draft 5.2 m.

Type: Cargo ship. MMSI: 245181000.

Date/timePositionNaut miles runAvg speedWind from/ knotsBaromVisibWave heightAir tempDewpointWater temp
2016-Dec-02 19:27N 38°22' W 009°59'8 8.7
2016-Dec-02 18:31N 38°30' W 010°01'11 8.5
2016-Dec-02 17:11N 38°41' W 010°05'5 8.4
2016-Dec-02 16:33N 38°46' W 010°05'8 8.2
2016-Dec-02 15:33N 38°54' W 010°06'8 8.1
2016-Dec-02 14:33N 39°02' W 010°07'  
2016-Nov-28 02:04N 49°47' W 003°23'610.4
2016-Nov-28 01:31N 49°50' W 003°16'1111.3
2016-Nov-28 00:31N 49°55' W 003°01'58 9.2
2016-Nov-27 18:11N 50°13' W 001°34'5 7.4
2016-Nov-27 17:33N 50°15' W 001°27'5610.6
2016-Nov-27 12:18N 50°31' W 000°04'811.1
2016-Nov-27 11:33N 50°34' E 000°09'32 9.8
2016-Nov-27 08:18N 50°48' E 000°54'2312.0
2016-Nov-27 06:21N 51°02' E 001°23'1013.0
2016-Nov-27 05:33N 51°09' E 001°36'1212.0
2016-Nov-27 04:33N 51°17' E 001°49'1110.6
2016-Nov-27 03:33N 51°26' E 001°59'9 9.4
2016-Nov-27 02:33N 51°33' E 002°09'9 8.7
2016-Nov-27 01:31N 51°40' E 002°18'82 9.7
2016-Nov-26 17:07N 52°44' E 003°41'7 9.5
2016-Nov-26 16:21N 52°49' E 003°49'10 9.0
2016-Nov-26 15:17N 52°57' E 003°59'7 8.7
2016-Nov-26 14:31N 53°01' E 004°08'9 8.7
2016-Nov-26 13:29N 53°07' E 004°18'20 9.6
2016-Nov-26 11:26N 53°24' E 004°35'1910.1
2016-Nov-26 09:33N 53°34' E 005°03'1010.1
2016-Nov-26 08:33N 53°37' E 005°19'9 9.2
2016-Nov-26 07:33N 53°40' E 005°34'9 8.7
2016-Nov-26 06:33N 53°42' E 005°48'8 8.5
2016-Nov-26 05:33N 53°45' E 006°01'9 8.5
2016-Nov-26 04:33N 53°48' E 006°15'40 9.8
2016-Nov-26 00:31N 53°58' E 007°20'2010.2
2016-Nov-25 22:33N 54°01' E 007°53'10 9.9
2016-Nov-25 21:32N 54°00' E 008°10'1010.5
2016-Nov-25 20:33N 53°59' E 008°28'9 8.9
2016-Nov-25 19:33N 53°55' E 008°41'9 8.8
2016-Nov-25 18:33N 53°51' E 008°54'1111.4
2016-Nov-25 17:34N 53°53' E 009°13'1312.8
2016-Nov-25 16:33N 53°43' E 009°28'1312.7
2016-Nov-25 15:34N 53°34' E 009°42'9 8.3
2016-Nov-25 14:28N 53°31' E 009°57'0 0.0
2016-Nov-25 13:31N 53°31' E 009°57'0 0.0
2016-Nov-25 12:31N 53°31' E 009°57'0 0.0
2016-Nov-25 11:31N 53°31' E 009°57'0 0.0
2016-Nov-25 10:31N 53°31' E 009°57'0 0.0
2016-Nov-25 09:31N 53°31' E 009°57'1 1.1
2016-Nov-25 08:34N 53°32' E 009°58'0 0.0
2016-Nov-25 07:31N 53°32' E 009°58'0 0.0
2016-Nov-25 06:28N 53°32' E 009°58'0 0.0
2016-Nov-25 05:28N 53°32' E 009°58'0 0.0
2016-Nov-25 04:31N 53°32' E 009°58'0 0.0
2016-Nov-25 03:31N 53°32' E 009°58'0 0.2
2016-Nov-25 02:33N 53°32' E 009°57'1 1.0
2016-Nov-25 01:25N 53°31' E 009°57'0 0.0
2016-Nov-25 00:31N 53°31' E 009°57'0 0.0
2016-Nov-24 23:25N 53°31' E 009°57'0 0.0
2016-Nov-24 22:31N 53°31' E 009°57'0 0.0
2016-Nov-24 21:28N 53°31' E 009°57'0 0.0
2016-Nov-24 20:31N 53°31' E 009°57'0 0.0
2016-Nov-24 19:31N 53°31' E 009°57'0 0.0
2016-Nov-24 18:31N 53°31' E 009°57'0 0.0
2016-Nov-24 17:31N 53°31' E 009°57'0 0.0
2016-Nov-24 16:31N 53°31' E 009°57'0 0.0
2016-Nov-24 15:31N 53°31' E 009°57'0 0.4
2016-Nov-24 14:33N 53°31' E 009°56'7 7.2
2016-Nov-24 13:33N 53°34' E 009°45'9 8.7
2016-Nov-24 12:33N 53°38' E 009°32'10 9.9
2016-Nov-24 11:33N 53°46' E 009°24'1010.3
2016-Nov-24 10:34N 53°53' E 009°10'1 0.8
2016-Nov-24 09:32N 53°53' E 009°09'0 0.0
2016-Nov-24 08:32N 53°53' E 009°09'0 0.0
2016-Nov-24 07:32N 53°53' E 009°09'0 0.0
2016-Nov-24 06:32N 53°53' E 009°09'0 0.0
2016-Nov-24 05:32N 53°53' E 009°09'0 0.1
2016-Nov-24 04:20N 53°53' E 009°08'0 0.0
2016-Nov-24 03:29N 53°53' E 009°08'0 0.0
2016-Nov-24 02:32N 53°53' E 009°08'0 0.0
2016-Nov-24 01:32N 53°53' E 009°08'0 0.0
2016-Nov-24 00:29N 53°53' E 009°08'0 0.0
2016-Nov-23 23:32N 53°53' E 009°08'0 0.0
2016-Nov-23 22:26N 53°53' E 009°08'0 0.1
2016-Nov-23 21:32N 53°53' E 009°09'0 0.0
2016-Nov-23 20:32N 53°53' E 009°09'0 0.0
2016-Nov-23 19:28N 53°53' E 009°09'0 0.0
2016-Nov-23 18:31N 53°53' E 009°09'0 0.0
2016-Nov-23 17:31N 53°53' E 009°09'0 0.0
2016-Nov-23 16:31N 53°53' E 009°09'0 0.1
2016-Nov-23 15:31N 53°53' E 009°08'0 0.0
2016-Nov-23 14:31N 53°53' E 009°08'0 0.0
2016-Nov-23 13:28N 53°53' E 009°08'0 0.0
2016-Nov-23 12:31N 53°53' E 009°08'0 0.0
2016-Nov-23 11:28N 53°53' E 009°08'0 0.0
2016-Nov-23 10:22N 53°53' E 009°08'0 0.0
2016-Nov-23 09:28N 53°53' E 009°08'0 0.1
2016-Nov-23 08:31N 53°53' E 009°09'0 0.0
2016-Nov-23 07:31N 53°53' E 009°09'0 0.0
2016-Nov-23 06:28N 53°53' E 009°09'0 0.0
2016-Nov-23 03:22N 53°53' E 009°08'0 0.1
2016-Nov-23 02:31N 53°53' E 009°08'0 0.0
2016-Nov-23 00:31N 53°53' E 009°08'0 0.0
2016-Nov-22 23:32N 53°53' E 009°08'5 5.2
2016-Nov-22 22:33N 53°51' E 009°00'17 8.7
2016-Nov-22 20:33N 53°58' E 008°33'1110.9
2016-Nov-22 19:33N 53°60' E 008°14'  
Track history (hours):
 
Tides and Currents Weather Stations Pressure Air Temp Water Temp Dewpoint Dewpoint Depression Visibility Wind Speed Wind Dir Waves Ship Positions

John_paul K

Last reported at 2016-Dec-02 19:27 UTC. Time now 2016-Dec-03 23:51 UTC.
Position N 38°22' W 009°59'.

Length 90 m; draft 5.2 m.

Type: Cargo ship. MMSI: 245181000.

Date/timePositionNaut miles runAvg speedWind from/ knotsBaromVisibWave heightAir tempDewpointWater temp
2016-Dec-02 19:27N 38°22' W 009°59'8 8.7
2016-Dec-02 18:31N 38°30' W 010°01'11 8.5
2016-Dec-02 17:11N 38°41' W 010°05'5 8.4
2016-Dec-02 16:33N 38°46' W 010°05'8 8.2
2016-Dec-02 15:33N 38°54' W 010°06'8 8.1
2016-Dec-02 14:33N 39°02' W 010°07'  
2016-Nov-28 02:04N 49°47' W 003°23'610.4
2016-Nov-28 01:31N 49°50' W 003°16'1111.3
2016-Nov-28 00:31N 49°55' W 003°01'58 9.2
2016-Nov-27 18:11N 50°13' W 001°34'5 7.4
2016-Nov-27 17:33N 50°15' W 001°27'5610.6
2016-Nov-27 12:18N 50°31' W 000°04'811.1
2016-Nov-27 11:33N 50°34' E 000°09'32 9.8
2016-Nov-27 08:18N 50°48' E 000°54'2312.0
2016-Nov-27 06:21N 51°02' E 001°23'1013.0
2016-Nov-27 05:33N 51°09' E 001°36'1212.0
2016-Nov-27 04:33N 51°17' E 001°49'1110.6
2016-Nov-27 03:33N 51°26' E 001°59'9 9.4
2016-Nov-27 02:33N 51°33' E 002°09'9 8.7
2016-Nov-27 01:31N 51°40' E 002°18'82 9.7
2016-Nov-26 17:07N 52°44' E 003°41'7 9.5
2016-Nov-26 16:21N 52°49' E 003°49'10 9.0
2016-Nov-26 15:17N 52°57' E 003°59'7 8.7
2016-Nov-26 14:31N 53°01' E 004°08'9 8.7
2016-Nov-26 13:29N 53°07' E 004°18'20 9.6
2016-Nov-26 11:26N 53°24' E 004°35'1910.1
2016-Nov-26 09:33N 53°34' E 005°03'1010.1
2016-Nov-26 08:33N 53°37' E 005°19'9 9.2
2016-Nov-26 07:33N 53°40' E 005°34'9 8.7
2016-Nov-26 06:33N 53°42' E 005°48'8 8.5
2016-Nov-26 05:33N 53°45' E 006°01'9 8.5
2016-Nov-26 04:33N 53°48' E 006°15'40 9.8
2016-Nov-26 00:31N 53°58' E 007°20'2010.2
2016-Nov-25 22:33N 54°01' E 007°53'10 9.9
2016-Nov-25 21:32N 54°00' E 008°10'1010.5
2016-Nov-25 20:33N 53°59' E 008°28'9 8.9
2016-Nov-25 19:33N 53°55' E 008°41'9 8.8
2016-Nov-25 18:33N 53°51' E 008°54'1111.4
2016-Nov-25 17:34N 53°53' E 009°13'1312.8
2016-Nov-25 16:33N 53°43' E 009°28'1312.7
2016-Nov-25 15:34N 53°34' E 009°42'9 8.3
2016-Nov-25 14:28N 53°31' E 009°57'0 0.0
2016-Nov-25 13:31N 53°31' E 009°57'0 0.0
2016-Nov-25 12:31N 53°31' E 009°57'0 0.0
2016-Nov-25 11:31N 53°31' E 009°57'0 0.0
2016-Nov-25 10:31N 53°31' E 009°57'0 0.0
2016-Nov-25 09:31N 53°31' E 009°57'1 1.1
2016-Nov-25 08:34N 53°32' E 009°58'0 0.0
2016-Nov-25 07:31N 53°32' E 009°58'0 0.0
2016-Nov-25 06:28N 53°32' E 009°58'0 0.0
2016-Nov-25 05:28N 53°32' E 009°58'0 0.0
2016-Nov-25 04:31N 53°32' E 009°58'0 0.0
2016-Nov-25 03:31N 53°32' E 009°58'0 0.2
2016-Nov-25 02:33N 53°32' E 009°57'1 1.0
2016-Nov-25 01:25N 53°31' E 009°57'0 0.0
2016-Nov-25 00:31N 53°31' E 009°57'0 0.0
2016-Nov-24 23:25N 53°31' E 009°57'0 0.0
2016-Nov-24 22:31N 53°31' E 009°57'0 0.0
2016-Nov-24 21:28N 53°31' E 009°57'0 0.0
2016-Nov-24 20:31N 53°31' E 009°57'0 0.0
2016-Nov-24 19:31N 53°31' E 009°57'0 0.0
2016-Nov-24 18:31N 53°31' E 009°57'0 0.0
2016-Nov-24 17:31N 53°31' E 009°57'0 0.0
2016-Nov-24 16:31N 53°31' E 009°57'0 0.0
2016-Nov-24 15:31N 53°31' E 009°57'0 0.4
2016-Nov-24 14:33N 53°31' E 009°56'7 7.2
2016-Nov-24 13:33N 53°34' E 009°45'9 8.7
2016-Nov-24 12:33N 53°38' E 009°32'10 9.9
2016-Nov-24 11:33N 53°46' E 009°24'1010.3
2016-Nov-24 10:34N 53°53' E 009°10'1 0.8
2016-Nov-24 09:32N 53°53' E 009°09'0 0.0
2016-Nov-24 08:32N 53°53' E 009°09'0 0.0
2016-Nov-24 07:32N 53°53' E 009°09'0 0.0
2016-Nov-24 06:32N 53°53' E 009°09'0 0.0
2016-Nov-24 05:32N 53°53' E 009°09'0 0.1
2016-Nov-24 04:20N 53°53' E 009°08'0 0.0
2016-Nov-24 03:29N 53°53' E 009°08'0 0.0
2016-Nov-24 02:32N 53°53' E 009°08'0 0.0
2016-Nov-24 01:32N 53°53' E 009°08'0 0.0
2016-Nov-24 00:29N 53°53' E 009°08'0 0.0
2016-Nov-23 23:32N 53°53' E 009°08'0 0.0
2016-Nov-23 22:26N 53°53' E 009°08'0 0.1
2016-Nov-23 21:32N 53°53' E 009°09'0 0.0
2016-Nov-23 20:32N 53°53' E 009°09'0 0.0
2016-Nov-23 19:28N 53°53' E 009°09'0 0.0
2016-Nov-23 18:31N 53°53' E 009°09'0 0.0
2016-Nov-23 17:31N 53°53' E 009°09'0 0.0
2016-Nov-23 16:31N 53°53' E 009°09'0 0.1
2016-Nov-23 15:31N 53°53' E 009°08'0 0.0
2016-Nov-23 14:31N 53°53' E 009°08'0 0.0
2016-Nov-23 13:28N 53°53' E 009°08'0 0.0
2016-Nov-23 12:31N 53°53' E 009°08'0 0.0
2016-Nov-23 11:28N 53°53' E 009°08'0 0.0
2016-Nov-23 10:22N 53°53' E 009°08'0 0.0
2016-Nov-23 09:28N 53°53' E 009°08'0 0.1
2016-Nov-23 08:31N 53°53' E 009°09'0 0.0
2016-Nov-23 07:31N 53°53' E 009°09'0 0.0
2016-Nov-23 06:28N 53°53' E 009°09'0 0.0
2016-Nov-23 03:22N 53°53' E 009°08'0 0.1
2016-Nov-23 02:31N 53°53' E 009°08'0 0.0
2016-Nov-23 00:31N 53°53' E 009°08'0 0.0
2016-Nov-22 23:32N 53°53' E 009°08'5 5.2
2016-Nov-22 22:33N 53°51' E 009°00'17 8.7
2016-Nov-22 20:33N 53°58' E 008°33'1110.9
2016-Nov-22 19:33N 53°60' E 008°14'  

Dump ship's entire track history